sensor_id;sensor_type;location;lat;lon;timestamp;pressure;altitude;pressure_sealevel;temperature;humidity
11099;BME280;12223;42.650;23.364;2023-01-01T00:00:12;96022.66;;;2.87;100.00
11099;BME280;12223;42.650;23.364;2023-01-01T00:02:38;96015.16;;;3.11;100.00
11099;BME280;12223;42.650;23.364;2023-01-01T00:05:06;96008.44;;;3.08;100.00
11099;BME280;12223;42.650;23.364;2023-01-01T00:07:33;96001.06;;;2.94;100.00
11099;BME280;12223;42.650;23.364;2023-01-01T00:09:59;95997.75;;;3.02;100.00
11099;BME280;12223;42.650;23.364;2023-01-01T00:12:55;96011.88;;;3.09;100.00
11099;BME280;12223;42.650;23.364;2023-01-01T00:15:24;96019.13;;;3.15;100.00
11099;BME280;12223;42.650;23.364;2023-01-01T00:17:51;96044.53;;;3.13;100.00
11099;BME280;12223;42.650;23.364;2023-01-01T00:20:18;96056.66;;;3.04;100.00
11099;BME280;12223;42.650;23.364;2023-01-01T00:22:45;96077.25;;;2.98;100.00
11099;BME280;12223;42.650;23.364;2023-01-01T00:25:12;96087.31;;;2.93;100.00
11099;BME280;12223;42.650;23.364;2023-01-01T00:27:39;96087.47;;;2.72;100.00
11099;BME280;12223;42.650;23.364;2023-01-01T00:30:07;96091.06;;;2.61;100.00
11099;BME280;12223;42.650;23.364;2023-01-01T00:32:36;96092.97;;;2.69;100.00
11099;BME280;12223;42.650;23.364;2023-01-01T00:35:03;96087.34;;;2.73;100.00
11099;BME280;12223;42.650;23.364;2023-01-01T00:37:30;96076.50;;;2.78;100.00
11099;BME280;12223;42.650;23.364;2023-01-01T00:39:57;96067.03;;;2.77;100.00
11099;BME280;12223;42.650;23.364;2023-01-01T00:42:23;96068.13;;;2.74;100.00
11099;BME280;12223;42.650;23.364;2023-01-01T00:44:50;96069.38;;;2.70;100.00
11099;BME280;12223;42.650;23.364;2023-01-01T00:47:17;96062.75;;;2.66;100.00
11099;BME280;12223;42.650;23.364;2023-01-01T00:49:45;96072.53;;;2.64;100.00
11099;BME280;12223;42.650;23.364;2023-01-01T00:52:12;96077.06;;;2.62;100.00
11099;BME280;12223;42.650;23.364;2023-01-01T00:54:39;96075.81;;;2.57;100.00
11099;BME280;12223;42.650;23.364;2023-01-01T00:57:05;96082.28;;;2.53;100.00
11099;BME280;12223;42.650;23.364;2023-01-01T00:59:32;96083.63;;;2.47;100.00
11099;BME280;12223;42.650;23.364;2023-01-01T01:01:59;96077.06;;;2.43;100.00
11099;BME280;12223;42.650;23.364;2023-01-01T01:04:26;96071.84;;;2.43;100.00
11099;BME280;12223;42.650;23.364;2023-01-01T01:06:54;96069.94;;;2.45;100.00
11099;BME280;12223;42.650;23.364;2023-01-01T01:09:20;96064.31;;;2.40;100.00
11099;BME280;12223;42.650;23.364;2023-01-01T01:11:47;96052.63;;;2.25;100.00
11099;BME280;12223;42.650;23.364;2023-01-01T01:14:14;96045.09;;;2.31;100.00
11099;BME280;12223;42.650;23.364;2023-01-01T01:16:41;96038.38;;;2.38;100.00
11099;BME280;12223;42.650;23.364;2023-01-01T01:19:09;96039.03;;;2.40;100.00
11099;BME280;12223;42.650;23.364;2023-01-01T01:21:39;96043.72;;;2.47;100.00
11099;BME280;12223;42.650;23.364;2023-01-01T01:24:08;96043.03;;;2.45;100.00
11099;BME280;12223;42.650;23.364;2023-01-01T01:26:35;96047.28;;;2.46;100.00
11099;BME280;12223;42.650;23.364;2023-01-01T01:29:02;96042.34;;;2.52;100.00
11099;BME280;12223;42.650;23.364;2023-01-01T01:31:31;96041.22;;;2.55;100.00
11099;BME280;12223;42.650;23.364;2023-01-01T01:33:59;96039.44;;;2.55;100.00
11099;BME280;12223;42.650;23.364;2023-01-01T01:36:26;96032.06;;;2.51;100.00
11099;BME280;12223;42.650;23.364;2023-01-01T01:38:54;96034.78;;;2.49;100.00
11099;BME280;12223;42.650;23.364;2023-01-01T01:41:23;96030.53;;;2.48;100.00
11099;BME280;12223;42.650;23.364;2023-01-01T01:43:54;96036.84;;;2.36;100.00
11099;BME280;12223;42.650;23.364;2023-01-01T01:46:25;96042.63;;;2.20;100.00
11099;BME280;12223;42.650;23.364;2023-01-01T01:48:56;96039.59;;;2.15;100.00
11099;BME280;12223;42.650;23.364;2023-01-01T01:51:27;96031.38;;;2.20;100.00
11099;BME280;12223;42.650;23.364;2023-01-01T01:53:59;96030.69;;;2.18;100.00
11099;BME280;12223;42.650;23.364;2023-01-01T01:56:34;96027.81;;;2.21;100.00
11099;BME280;12223;42.650;23.364;2023-01-01T01:59:04;96042.47;;;2.22;100.00
11099;BME280;12223;42.650;23.364;2023-01-01T02:01:31;96050.03;;;2.25;100.00
11099;BME280;12223;42.650;23.364;2023-01-01T02:03:59;96050.88;;;2.25;100.00
11099;BME280;12223;42.650;23.364;2023-01-01T02:06:28;96047.31;;;2.26;100.00
11099;BME280;12223;42.650;23.364;2023-01-01T02:08:56;96046.72;;;2.23;100.00
11099;BME280;12223;42.650;23.364;2023-01-01T02:11:24;96045.34;;;2.28;100.00
11099;BME280;12223;42.650;23.364;2023-01-01T02:13:53;96036.72;;;2.18;100.00
11099;BME280;12223;42.650;23.364;2023-01-01T02:16:26;96040.97;;;2.10;100.00
11099;BME280;12223;42.650;23.364;2023-01-01T02:18:59;96033.69;;;2.23;100.00
11099;BME280;12223;42.650;23.364;2023-01-01T02:21:30;96046.31;;;2.37;100.00
11099;BME280;12223;42.650;23.364;2023-01-01T02:24:22;96061.84;;;2.38;100.00
11099;BME280;12223;42.650;23.364;2023-01-01T02:26:59;96077.22;;;2.32;100.00
11099;BME280;12223;42.650;23.364;2023-01-01T02:29:35;96085.56;;;2.26;100.00
11099;BME280;12223;42.650;23.364;2023-01-01T02:32:07;96090.75;;;2.07;100.00
11099;BME280;12223;42.650;23.364;2023-01-01T02:34:38;96093.50;;;1.95;100.00
11099;BME280;12223;42.650;23.364;2023-01-01T02:37:08;96089.59;;;1.80;100.00
11099;BME280;12223;42.650;23.364;2023-01-01T02:39:43;96093.03;;;1.81;100.00
11099;BME280;12223;42.650;23.364;2023-01-01T02:42:11;96067.50;;;1.65;100.00
11099;BME280;12223;42.650;23.364;2023-01-01T02:44:42;96083.41;;;1.72;100.00
11099;BME280;12223;42.650;23.364;2023-01-01T02:47:12;96063.09;;;1.66;100.00
11099;BME280;12223;42.650;23.364;2023-01-01T02:49:45;96055.75;;;1.71;100.00
11099;BME280;12223;42.650;23.364;2023-01-01T02:52:23;96047.41;;;1.77;100.00
11099;BME280;12223;42.650;23.364;2023-01-01T02:55:02;96038.75;;;1.86;100.00
11099;BME280;12223;42.650;23.364;2023-01-01T02:57:35;96023.16;;;1.95;100.00
11099;BME280;12223;42.650;23.364;2023-01-01T03:00:10;96016.84;;;2.08;100.00
11099;BME280;12223;42.650;23.364;2023-01-01T03:02:53;96011.22;;;2.12;100.00
11099;BME280;12223;42.650;23.364;2023-01-01T03:05:26;96018.50;;;2.09;100.00
11099;BME280;12223;42.650;23.364;2023-01-01T03:08:04;96020.25;;;1.98;100.00
11099;BME280;12223;42.650;23.364;2023-01-01T03:10:39;96026.00;;;1.92;100.00
11099;BME280;12223;42.650;23.364;2023-01-01T03:13:11;96031.50;;;1.89;100.00
11099;BME280;12223;42.650;23.364;2023-01-01T03:15:45;96036.31;;;1.94;100.00
11099;BME280;12223;42.650;23.364;2023-01-01T03:18:16;96039.03;;;1.92;100.00
11099;BME280;12223;42.650;23.364;2023-01-01T03:20:47;96023.78;;;1.78;100.00
11099;BME280;12223;42.650;23.364;2023-01-01T03:23:20;96011.34;;;1.82;100.00
11099;BME280;12223;42.650;23.364;2023-01-01T03:25:51;96000.38;;;2.07;100.00
11099;BME280;12223;42.650;23.364;2023-01-01T03:28:22;96004.22;;;2.03;100.00
11099;BME280;12223;42.650;23.364;2023-01-01T03:30:53;96007.63;;;2.03;100.00
11099;BME280;12223;42.650;23.364;2023-01-01T03:33:24;96014.91;;;2.10;100.00
11099;BME280;12223;42.650;23.364;2023-01-01T03:35:57;96027.41;;;2.06;100.00
11099;BME280;12223;42.650;23.364;2023-01-01T03:38:29;96042.06;;;1.97;100.00
11099;BME280;12223;42.650;23.364;2023-01-01T03:41:02;96057.66;;;1.78;100.00
11099;BME280;12223;42.650;23.364;2023-01-01T03:43:36;96072.69;;;1.55;100.00
11099;BME280;12223;42.650;23.364;2023-01-01T03:46:08;96061.72;;;1.61;100.00
11099;BME280;12223;42.650;23.364;2023-01-01T03:48:38;96051.44;;;1.60;100.00
11099;BME280;12223;42.650;23.364;2023-01-01T03:51:22;96037.63;;;1.69;100.00
11099;BME280;12223;42.650;23.364;2023-01-01T03:53:54;96050.19;;;1.54;100.00
11099;BME280;12223;42.650;23.364;2023-01-01T03:56:28;96034.44;;;1.56;100.00
11099;BME280;12223;42.650;23.364;2023-01-01T03:59:02;96023.38;;;1.73;100.00
11099;BME280;12223;42.650;23.364;2023-01-01T04:01:37;96025.69;;;1.67;100.00
11099;BME280;12223;42.650;23.364;2023-01-01T04:04:06;96024.03;;;1.66;100.00
11099;BME280;12223;42.650;23.364;2023-01-01T04:06:33;96024.47;;;1.61;100.00
11099;BME280;12223;42.650;23.364;2023-01-01T04:09:02;96026.53;;;1.67;100.00
11099;BME280;12223;42.650;23.364;2023-01-01T04:11:31;96026.81;;;1.64;100.00
11099;BME280;12223;42.650;23.364;2023-01-01T04:14:25;96039.38;;;1.59;100.00
11099;BME280;12223;42.650;23.364;2023-01-01T04:16:54;96051.56;;;1.58;100.00
11099;BME280;12223;42.650;23.364;2023-01-01T04:19:21;96042.09;;;1.48;100.00
11099;BME280;12223;42.650;23.364;2023-01-01T04:21:47;96050.06;;;1.56;100.00
11099;BME280;12223;42.650;23.364;2023-01-01T04:24:14;96052.41;;;1.59;100.00
11099;BME280;12223;42.650;23.364;2023-01-01T04:26:41;96048.16;;;1.58;100.00
11099;BME280;12223;42.650;23.364;2023-01-01T04:29:08;96041.41;;;1.46;100.00
11099;BME280;12223;42.650;23.364;2023-01-01T04:31:35;96037.00;;;1.46;100.00
11099;BME280;12223;42.650;23.364;2023-01-01T04:34:03;96019.66;;;1.66;100.00
11099;BME280;12223;42.650;23.364;2023-01-01T04:36:30;96030.78;;;1.68;100.00
11099;BME280;12223;42.650;23.364;2023-01-01T04:38:56;96031.84;;;1.66;100.00
11099;BME280;12223;42.650;23.364;2023-01-01T04:41:23;96021.03;;;1.51;100.00
11099;BME280;12223;42.650;23.364;2023-01-01T04:43:50;96038.72;;;1.57;100.00
11099;BME280;12223;42.650;23.364;2023-01-01T04:46:18;96056.47;;;1.42;100.00
11099;BME280;12223;42.650;23.364;2023-01-01T04:48:45;96058.78;;;1.36;100.00
11099;BME280;12223;42.650;23.364;2023-01-01T04:51:14;96063.78;;;1.18;100.00
11099;BME280;12223;42.650;23.364;2023-01-01T04:53:42;96035.06;;;0.99;100.00
11099;BME280;12223;42.650;23.364;2023-01-01T04:56:10;96054.63;;;1.24;100.00
11099;BME280;12223;42.650;23.364;2023-01-01T04:58:38;96042.44;;;1.24;100.00
11099;BME280;12223;42.650;23.364;2023-01-01T05:01:06;96040.06;;;1.21;100.00
11099;BME280;12223;42.650;23.364;2023-01-01T05:03:33;96032.41;;;1.19;100.00
11099;BME280;12223;42.650;23.364;2023-01-01T05:06:00;96043.13;;;1.26;100.00
11099;BME280;12223;42.650;23.364;2023-01-01T05:08:29;96041.31;;;1.27;100.00
11099;BME280;12223;42.650;23.364;2023-01-01T05:11:00;96036.41;;;1.33;100.00
11099;BME280;12223;42.650;23.364;2023-01-01T05:13:27;96043.84;;;1.38;100.00
11099;BME280;12223;42.650;23.364;2023-01-01T05:15:53;96044.69;;;1.38;100.00
11099;BME280;12223;42.650;23.364;2023-01-01T05:18:20;96048.91;;;1.39;100.00
11099;BME280;12223;42.650;23.364;2023-01-01T05:20:47;96038.38;;;1.41;100.00
11099;BME280;12223;42.650;23.364;2023-01-01T05:23:15;96037.72;;;1.48;100.00
11099;BME280;12223;42.650;23.364;2023-01-01T05:25:43;96045.41;;;1.50;100.00
11099;BME280;12223;42.650;23.364;2023-01-01T05:28:10;96041.97;;;1.49;100.00
11099;BME280;12223;42.650;23.364;2023-01-01T05:30:38;96053.34;;;1.48;100.00
11099;BME280;12223;42.650;23.364;2023-01-01T05:33:05;96038.78;;;1.46;100.00
11099;BME280;12223;42.650;23.364;2023-01-01T05:35:32;96056.22;;;1.55;100.00
11099;BME280;12223;42.650;23.364;2023-01-01T05:37:59;96051.72;;;1.57;100.00
11099;BME280;12223;42.650;23.364;2023-01-01T05:40:26;96069.41;;;1.63;100.00
11099;BME280;12223;42.650;23.364;2023-01-01T05:42:54;96078.72;;;1.56;100.00
11099;BME280;12223;42.650;23.364;2023-01-01T05:45:20;96071.09;;;1.34;100.00
11099;BME280;12223;42.650;23.364;2023-01-01T05:47:47;96096.59;;;1.40;100.00
11099;BME280;12223;42.650;23.364;2023-01-01T05:50:14;96094.13;;;1.38;100.00
11099;BME280;12223;42.650;23.364;2023-01-01T05:52:41;96102.19;;;1.35;100.00
11099;BME280;12223;42.650;23.364;2023-01-01T05:55:08;96105.59;;;1.26;100.00
11099;BME280;12223;42.650;23.364;2023-01-01T05:57:35;96099.75;;;1.13;100.00
11099;BME280;12223;42.650;23.364;2023-01-01T06:00:03;96094.41;;;1.14;100.00
11099;BME280;12223;42.650;23.364;2023-01-01T06:02:30;96088.00;;;1.18;100.00
11099;BME280;12223;42.650;23.364;2023-01-01T06:04:57;96084.06;;;1.24;100.00
11099;BME280;12223;42.650;23.364;2023-01-01T06:07:24;96078.88;;;1.24;100.00
11099;BME280;12223;42.650;23.364;2023-01-01T06:09:50;96080.13;;;1.30;100.00
11099;BME280;12223;42.650;23.364;2023-01-01T06:12:17;96087.81;;;1.41;100.00
11099;BME280;12223;42.650;23.364;2023-01-01T06:14:44;96078.81;;;1.45;100.00
11099;BME280;12223;42.650;23.364;2023-01-01T06:17:12;96075.97;;;1.57;100.00
11099;BME280;12223;42.650;23.364;2023-01-01T06:19:39;96078.47;;;1.69;100.00
11099;BME280;12223;42.650;23.364;2023-01-01T06:22:05;96077.59;;;2.18;100.00
11099;BME280;12223;42.650;23.364;2023-01-01T06:24:32;96066.78;;;3.17;100.00
11099;BME280;12223;42.650;23.364;2023-01-01T06:26:59;96113.13;;;4.52;100.00
11099;BME280;12223;42.650;23.364;2023-01-01T06:29:26;96175.13;;;5.99;100.00
11099;BME280;12223;42.650;23.364;2023-01-01T06:31:52;96195.78;;;7.27;100.00
11099;BME280;12223;42.650;23.364;2023-01-01T06:34:20;96207.06;;;8.47;100.00
11099;BME280;12223;42.650;23.364;2023-01-01T06:36:47;96221.47;;;9.67;100.00
11099;BME280;12223;42.650;23.364;2023-01-01T06:39:14;96227.91;;;10.75;91.67
11099;BME280;12223;42.650;23.364;2023-01-01T06:41:41;96227.53;;;11.29;72.02
11099;BME280;12223;42.650;23.364;2023-01-01T06:44:07;96225.69;;;12.21;64.87
11099;BME280;12223;42.650;23.364;2023-01-01T06:46:35;96234.25;;;12.99;57.48
11099;BME280;12223;42.650;23.364;2023-01-01T06:49:03;96236.25;;;13.51;54.03
11099;BME280;12223;42.650;23.364;2023-01-01T06:51:35;96238.31;;;13.62;51.62
11099;BME280;12223;42.650;23.364;2023-01-01T06:54:03;96240.16;;;13.61;50.83
11099;BME280;12223;42.650;23.364;2023-01-01T06:56:30;96253.00;;;13.51;50.65
11099;BME280;12223;42.650;23.364;2023-01-01T06:58:57;96258.06;;;13.33;50.53
11099;BME280;12223;42.650;23.364;2023-01-01T07:01:25;96259.53;;;12.95;50.04
11099;BME280;12223;42.650;23.364;2023-01-01T07:03:53;96254.75;;;12.42;50.30
11099;BME280;12223;42.650;23.364;2023-01-01T07:06:21;96258.41;;;11.86;51.72
11099;BME280;12223;42.650;23.364;2023-01-01T07:08:50;96256.53;;;11.22;54.03
11099;BME280;12223;42.650;23.364;2023-01-01T07:11:17;96261.75;;;10.65;57.49
11099;BME280;12223;42.650;23.364;2023-01-01T07:13:44;96251.44;;;10.26;60.59
11099;BME280;12223;42.650;23.364;2023-01-01T07:16:10;96257.63;;;10.33;62.87
11099;BME280;12223;42.650;23.364;2023-01-01T07:18:37;96263.13;;;10.46;63.41
11099;BME280;12223;42.650;23.364;2023-01-01T07:21:06;96260.78;;;10.87;62.13
11099;BME280;12223;42.650;23.364;2023-01-01T07:23:34;96259.53;;;11.55;61.17
11099;BME280;12223;42.650;23.364;2023-01-01T07:26:02;96256.63;;;12.48;58.61
11099;BME280;12223;42.650;23.364;2023-01-01T07:28:29;96248.94;;;13.55;55.23
11099;BME280;12223;42.650;23.364;2023-01-01T07:30:55;96251.53;;;14.80;51.12
11099;BME280;12223;42.650;23.364;2023-01-01T07:33:23;96250.25;;;16.10;48.10
11099;BME280;12223;42.650;23.364;2023-01-01T07:35:49;96251.41;;;17.37;44.02
11099;BME280;12223;42.650;23.364;2023-01-01T07:38:16;96249.00;;;18.53;41.39
11099;BME280;12223;42.650;23.364;2023-01-01T07:40:43;96256.22;;;19.51;38.78
11099;BME280;12223;42.650;23.364;2023-01-01T07:43:11;96246.78;;;20.38;36.21
11099;BME280;12223;42.650;23.364;2023-01-01T07:45:39;96251.25;;;21.05;34.47
11099;BME280;12223;42.650;23.364;2023-01-01T07:48:08;96253.63;;;21.66;33.26
11099;BME280;12223;42.650;23.364;2023-01-01T07:50:37;96250.31;;;21.86;32.20
11099;BME280;12223;42.650;23.364;2023-01-01T07:53:04;96250.38;;;21.91;32.19
11099;BME280;12223;42.650;23.364;2023-01-01T07:55:31;96243.53;;;21.79;31.71
11099;BME280;12223;42.650;23.364;2023-01-01T07:57:58;96242.34;;;21.70;31.44
11099;BME280;12223;42.650;23.364;2023-01-01T08:00:27;96250.56;;;21.85;31.06
11099;BME280;12223;42.650;23.364;2023-01-01T08:02:54;96247.78;;;21.75;31.04
11099;BME280;12223;42.650;23.364;2023-01-01T08:05:21;96248.00;;;21.68;31.53
11099;BME280;12223;42.650;23.364;2023-01-01T08:07:49;96252.22;;;21.15;31.63
11099;BME280;12223;42.650;23.364;2023-01-01T08:10:17;96260.03;;;20.45;32.87
11099;BME280;12223;42.650;23.364;2023-01-01T08:12:45;96261.59;;;19.51;33.84
11099;BME280;12223;42.650;23.364;2023-01-01T08:15:13;96271.50;;;18.64;35.18
11099;BME280;12223;42.650;23.364;2023-01-01T08:17:41;96265.25;;;17.63;37.14
11099;BME280;12223;42.650;23.364;2023-01-01T08:20:08;96268.78;;;16.73;38.82
11099;BME280;12223;42.650;23.364;2023-01-01T08:22:36;96280.72;;;15.58;41.03
11099;BME280;12223;42.650;23.364;2023-01-01T08:25:03;96278.78;;;14.17;44.43
11099;BME280;12223;42.650;23.364;2023-01-01T08:27:30;96281.09;;;12.85;48.09
11099;BME280;12223;42.650;23.364;2023-01-01T08:29:56;96288.31;;;11.65;51.94
11099;BME280;12223;42.650;23.364;2023-01-01T08:32:23;96278.59;;;10.79;57.93
11099;BME280;12223;42.650;23.364;2023-01-01T08:34:51;96276.44;;;10.16;64.07
11099;BME280;12223;42.650;23.364;2023-01-01T08:37:19;96279.63;;;9.28;74.00
11099;BME280;12223;42.650;23.364;2023-01-01T08:39:48;96280.78;;;8.95;81.11
11099;BME280;12223;42.650;23.364;2023-01-01T08:42:15;96282.72;;;8.62;86.14
11099;BME280;12223;42.650;23.364;2023-01-01T08:44:41;96272.69;;;7.70;98.30
11099;BME280;12223;42.650;23.364;2023-01-01T08:47:15;96279.56;;;7.79;100.00
11099;BME280;12223;42.650;23.364;2023-01-01T08:49:42;96270.84;;;7.54;100.00
11099;BME280;12223;42.650;23.364;2023-01-01T08:52:11;96265.75;;;7.60;100.00
11099;BME280;12223;42.650;23.364;2023-01-01T08:54:37;96279.72;;;7.45;100.00
11099;BME280;12223;42.650;23.364;2023-01-01T08:57:04;96268.34;;;7.28;100.00
11099;BME280;12223;42.650;23.364;2023-01-01T08:59:32;96268.88;;;7.32;100.00
11099;BME280;12223;42.650;23.364;2023-01-01T09:01:58;96267.06;;;7.24;100.00
11099;BME280;12223;42.650;23.364;2023-01-01T09:04:25;96269.19;;;7.28;100.00
11099;BME280;12223;42.650;23.364;2023-01-01T09:06:52;96266.69;;;7.11;100.00
11099;BME280;12223;42.650;23.364;2023-01-01T09:09:20;96269.66;;;7.08;100.00
11099;BME280;12223;42.650;23.364;2023-01-01T09:11:49;96266.97;;;6.92;100.00
11099;BME280;12223;42.650;23.364;2023-01-01T09:14:16;96259.34;;;7.14;100.00
11099;BME280;12223;42.650;23.364;2023-01-01T09:16:43;96250.63;;;7.22;100.00
11099;BME280;12223;42.650;23.364;2023-01-01T09:19:10;96247.69;;;7.41;100.00
11099;BME280;12223;42.650;23.364;2023-01-01T09:21:37;96240.78;;;7.48;100.00
11099;BME280;12223;42.650;23.364;2023-01-01T09:24:04;96240.59;;;7.66;100.00
11099;BME280;12223;42.650;23.364;2023-01-01T09:26:32;96227.63;;;7.73;100.00
11099;BME280;12223;42.650;23.364;2023-01-01T09:28:59;96235.63;;;8.03;100.00
11099;BME280;12223;42.650;23.364;2023-01-01T09:31:25;96225.97;;;7.96;100.00
11099;BME280;12223;42.650;23.364;2023-01-01T09:33:52;96230.91;;;7.75;100.00
11099;BME280;12223;42.650;23.364;2023-01-01T09:36:27;96222.72;;;7.61;100.00
11099;BME280;12223;42.650;23.364;2023-01-01T09:38:55;96227.88;;;8.10;100.00
11099;BME280;12223;42.650;23.364;2023-01-01T09:41:29;96222.47;;;8.12;100.00
11099;BME280;12223;42.650;23.364;2023-01-01T09:44:10;96215.84;;;8.32;100.00
11099;BME280;12223;42.650;23.364;2023-01-01T09:46:42;96214.47;;;8.52;100.00
11099;BME280;12223;42.650;23.364;2023-01-01T09:49:12;96209.38;;;8.51;100.00
11099;BME280;12223;42.650;23.364;2023-01-01T09:51:41;96223.38;;;8.43;100.00
11099;BME280;12223;42.650;23.364;2023-01-01T09:54:14;96213.72;;;8.27;100.00
11099;BME280;12223;42.650;23.364;2023-01-01T09:56:44;96200.25;;;8.14;100.00
11099;BME280;12223;42.650;23.364;2023-01-01T09:59:13;96210.91;;;8.37;100.00
11099;BME280;12223;42.650;23.364;2023-01-01T10:01:48;96208.72;;;8.48;100.00
11099;BME280;12223;42.650;23.364;2023-01-01T10:04:31;96201.94;;;8.54;100.00
11099;BME280;12223;42.650;23.364;2023-01-01T10:07:07;96198.16;;;8.57;100.00
11099;BME280;12223;42.650;23.364;2023-01-01T10:09:44;96204.69;;;8.61;100.00
11099;BME280;12223;42.650;23.364;2023-01-01T10:12:18;96196.47;;;8.64;100.00
11099;BME280;12223;42.650;23.364;2023-01-01T10:14:50;96202.31;;;8.82;100.00
11099;BME280;12223;42.650;23.364;2023-01-01T10:17:28;96200.66;;;8.81;100.00
11099;BME280;12223;42.650;23.364;2023-01-01T10:20:00;96197.81;;;8.91;100.00
11099;BME280;12223;42.650;23.364;2023-01-01T10:22:32;96200.25;;;8.92;100.00
11099;BME280;12223;42.650;23.364;2023-01-01T10:25:07;96194.56;;;8.80;100.00
11099;BME280;12223;42.650;23.364;2023-01-01T10:27:37;96193.25;;;9.07;100.00
11099;BME280;12223;42.650;23.364;2023-01-01T10:30:13;96195.44;;;9.04;100.00
11099;BME280;12223;42.650;23.364;2023-01-01T10:32:40;96188.69;;;9.01;100.00
11099;BME280;12223;42.650;23.364;2023-01-01T10:35:12;96185.88;;;9.03;100.00
11099;BME280;12223;42.650;23.364;2023-01-01T10:37:39;96188.81;;;9.08;100.00
11099;BME280;12223;42.650;23.364;2023-01-01T10:40:16;96177.25;;;9.32;100.00
11099;BME280;12223;42.650;23.364;2023-01-01T10:42:46;96177.19;;;9.40;100.00
11099;BME280;12223;42.650;23.364;2023-01-01T10:45:17;96173.19;;;9.44;100.00
11099;BME280;12223;42.650;23.364;2023-01-01T10:48:08;96162.91;;;9.72;100.00
11099;BME280;12223;42.650;23.364;2023-01-01T10:50:41;96157.72;;;9.78;98.46
11099;BME280;12223;42.650;23.364;2023-01-01T10:53:19;96151.97;;;9.75;98.82
11099;BME280;12223;42.650;23.364;2023-01-01T10:55:48;96150.88;;;9.69;100.00
11099;BME280;12223;42.650;23.364;2023-01-01T10:58:25;96145.97;;;9.66;100.00
11099;BME280;12223;42.650;23.364;2023-01-01T11:01:02;96146.69;;;9.75;100.00
11099;BME280;12223;42.650;23.364;2023-01-01T11:03:29;96125.41;;;9.76;99.48
11099;BME280;12223;42.650;23.364;2023-01-01T11:06:05;96133.16;;;9.78;99.88
11099;BME280;12223;42.650;23.364;2023-01-01T11:08:38;96131.25;;;9.86;99.50
11099;BME280;12223;42.650;23.364;2023-01-01T11:11:16;96135.50;;;9.87;99.30
11099;BME280;12223;42.650;23.364;2023-01-01T11:13:47;96124.84;;;9.81;100.00
11099;BME280;12223;42.650;23.364;2023-01-01T11:16:16;96129.63;;;9.85;100.00
11099;BME280;12223;42.650;23.364;2023-01-01T11:18:42;96126.13;;;9.99;99.84
11099;BME280;12223;42.650;23.364;2023-01-01T11:21:09;96126.44;;;10.04;98.86
11099;BME280;12223;42.650;23.364;2023-01-01T11:23:44;96112.69;;;10.09;98.13
11099;BME280;12223;42.650;23.364;2023-01-01T11:26:19;96120.22;;;10.12;97.99
11099;BME280;12223;42.650;23.364;2023-01-01T11:28:58;96112.28;;;10.12;98.23
11099;BME280;12223;42.650;23.364;2023-01-01T11:31:28;96107.59;;;10.22;97.49
11099;BME280;12223;42.650;23.364;2023-01-01T11:33:56;96112.31;;;10.27;96.59
11099;BME280;12223;42.650;23.364;2023-01-01T11:36:24;96108.78;;;10.20;97.50
11099;BME280;12223;42.650;23.364;2023-01-01T11:39:05;96096.88;;;10.45;96.39
11099;BME280;12223;42.650;23.364;2023-01-01T11:41:41;96092.78;;;10.78;91.21
11099;BME280;12223;42.650;23.364;2023-01-01T11:44:09;96094.75;;;10.91;89.76
11099;BME280;12223;42.650;23.364;2023-01-01T11:46:39;96092.41;;;11.03;88.09
11099;BME280;12223;42.650;23.364;2023-01-01T11:49:12;96086.34;;;11.09;86.99
11099;BME280;12223;42.650;23.364;2023-01-01T11:51:39;96083.94;;;11.14;86.98
11099;BME280;12223;42.650;23.364;2023-01-01T11:54:19;96076.94;;;11.27;85.52
11099;BME280;12223;42.650;23.364;2023-01-01T11:56:51;96081.16;;;11.43;84.72
11099;BME280;12223;42.650;23.364;2023-01-01T11:59:23;96068.44;;;11.32;85.32
11099;BME280;12223;42.650;23.364;2023-01-01T12:01:55;96078.88;;;11.40;84.52
11099;BME280;12223;42.650;23.364;2023-01-01T12:04:27;96088.69;;;11.46;84.20
11099;BME280;12223;42.650;23.364;2023-01-01T12:07:01;96070.63;;;11.50;83.31
11099;BME280;12223;42.650;23.364;2023-01-01T12:09:33;96074.22;;;11.42;84.34
11099;BME280;12223;42.650;23.364;2023-01-01T12:12:08;96067.81;;;11.30;84.33
11099;BME280;12223;42.650;23.364;2023-01-01T12:14:41;96065.88;;;11.45;84.17
11099;BME280;12223;42.650;23.364;2023-01-01T12:17:17;96066.56;;;11.54;82.56
11099;BME280;12223;42.650;23.364;2023-01-01T12:19:52;96058.63;;;11.54;82.00
11099;BME280;12223;42.650;23.364;2023-01-01T12:22:21;96062.31;;;11.59;82.11
11099;BME280;12223;42.650;23.364;2023-01-01T12:24:49;96050.97;;;11.65;81.89
11099;BME280;12223;42.650;23.364;2023-01-01T12:27:24;96060.25;;;11.83;81.16
11099;BME280;12223;42.650;23.364;2023-01-01T12:30:03;96047.53;;;11.72;81.60
11099;BME280;12223;42.650;23.364;2023-01-01T12:32:44;96048.84;;;11.76;80.12
11099;BME280;12223;42.650;23.364;2023-01-01T12:35:22;96046.53;;;11.73;79.95
11099;BME280;12223;42.650;23.364;2023-01-01T12:38:00;96047.00;;;11.83;79.41
11099;BME280;12223;42.650;23.364;2023-01-01T12:40:45;96056.38;;;11.79;79.28
11099;BME280;12223;42.650;23.364;2023-01-01T12:43:18;96047.31;;;11.66;80.58
11099;BME280;12223;42.650;23.364;2023-01-01T12:45:55;96048.84;;;11.76;81.26
11099;BME280;12223;42.650;23.364;2023-01-01T12:48:41;96059.34;;;12.03;79.67
11099;BME280;12223;42.650;23.364;2023-01-01T12:51:22;96056.53;;;12.12;78.64
11099;BME280;12223;42.650;23.364;2023-01-01T12:53:59;96052.66;;;12.14;77.91
11099;BME280;12223;42.650;23.364;2023-01-01T12:56:30;96056.94;;;12.15;77.87
11099;BME280;12223;42.650;23.364;2023-01-01T12:59:02;96047.63;;;12.26;76.98
11099;BME280;12223;42.650;23.364;2023-01-01T13:01:32;96053.94;;;12.25;76.51
11099;BME280;12223;42.650;23.364;2023-01-01T13:04:03;96055.78;;;12.24;77.10